createdAt,value
2019-03-12T00:01:23.495Z,101228.42
2019-03-12T00:03:51.707Z,101221.05
2019-03-12T00:06:20.482Z,101232.34
2019-03-12T00:08:48.658Z,101222.74
2019-03-12T00:11:16.736Z,101225.70
2019-03-12T00:13:44.949Z,101229.61
2019-03-12T00:16:13.005Z,101232.21
2019-03-12T00:18:41.119Z,101237.63
2019-03-12T00:21:09.496Z,101236.92
2019-03-12T00:23:37.789Z,101235.60
2019-03-12T00:26:06.207Z,101240.91
2019-03-12T00:28:34.297Z,101245.50
2019-03-12T00:31:02.509Z,101244.64
2019-03-12T00:33:30.666Z,101259.64
2019-03-12T00:35:59.084Z,101253.38
2019-03-12T00:38:28.122Z,101258.78
2019-03-12T00:40:56.282Z,101260.67
2019-03-12T00:43:25.492Z,101254.49
2019-03-12T00:45:53.541Z,101255.55
2019-03-12T00:48:21.967Z,101253.19
2019-03-12T00:50:51.103Z,101259.90
2019-03-12T00:53:19.534Z,101260.80
2019-03-12T00:55:48.702Z,101252.77
2019-03-12T00:58:16.814Z,101257.34
2019-03-12T01:00:44.849Z,101256.27
2019-03-12T01:03:13.029Z,101257.30
2019-03-12T01:05:41.162Z,101264.27
2019-03-12T01:08:09.268Z,101263.09
2019-03-12T01:10:37.477Z,101259.55
2019-03-12T01:13:17.372Z,101258.72
2019-03-12T01:15:45.571Z,101254.93
2019-03-12T01:18:14.023Z,101253.27
2019-03-12T01:20:42.310Z,101257.17
2019-03-12T01:23:10.405Z,101258.20
2019-03-12T01:25:39.969Z,101258.67
2019-03-12T01:28:08.085Z,101256.07
2019-03-12T01:30:36.307Z,101259.06
2019-03-12T01:33:04.368Z,101251.97
2019-03-12T01:35:32.558Z,101257.89
2019-03-12T01:38:01.843Z,101263.24
2019-03-12T01:40:30.811Z,101263.13
2019-03-12T01:42:58.972Z,101259.11
2019-03-12T01:45:27.060Z,101259.94
2019-03-12T01:47:55.129Z,101265.89
2019-03-12T01:50:23.182Z,101249.80
2019-03-12T01:52:52.541Z,101254.06
2019-03-12T01:55:20.615Z,101258.67
2019-03-12T01:57:48.800Z,101257.17
2019-03-12T02:00:17.045Z,101257.88
2019-03-12T02:02:45.182Z,101264.27
2019-03-12T02:05:15.828Z,101263.92
2019-03-12T02:07:45.450Z,101262.27
2019-03-12T02:10:15.259Z,101265.54
2019-03-12T02:12:43.303Z,101262.81
2019-03-12T02:15:12.047Z,101268.58
2019-03-12T02:17:41.114Z,101266.45
2019-03-12T02:20:12.246Z,101263.75
2019-03-12T02:22:40.687Z,101261.87
2019-03-12T02:25:11.017Z,101256.91
2019-03-12T02:27:40.878Z,101260.69
2019-03-12T02:30:12.385Z,101261.08
2019-03-12T02:32:44.407Z,101249.72
2019-03-12T02:35:18.016Z,101249.61
2019-03-12T02:37:47.182Z,101251.50
2019-03-12T02:40:17.136Z,101238.80
2019-03-12T02:42:45.210Z,101244.13
2019-03-12T02:45:14.006Z,101235.22
2019-03-12T02:47:42.497Z,101233.09
2019-03-12T02:50:12.980Z,101221.03
2019-03-12T02:52:41.134Z,101220.20
2019-03-12T02:55:09.425Z,101222.80
2019-03-12T02:57:37.889Z,101218.43
2019-03-12T03:00:13.697Z,101217.48
2019-03-12T03:02:41.863Z,101214.77
2019-03-12T03:05:10.224Z,101213.84
2019-03-12T03:08:09.900Z,101212.43
2019-03-12T03:10:37.975Z,101211.02
2019-03-12T03:13:08.245Z,101212.55
2019-03-12T03:15:40.210Z,101205.48
2019-03-12T03:18:08.684Z,101214.00
2019-03-12T03:20:36.762Z,101211.40
2019-03-12T03:23:05.099Z,101203.83
2019-03-12T03:25:33.194Z,101209.23
2019-03-12T03:28:01.210Z,101212.08
2019-03-12T03:30:30.654Z,101215.70
2019-03-12T03:32:59.129Z,101208.73
2019-03-12T03:35:27.228Z,101206.57
2019-03-12T03:37:55.466Z,101209.64
2019-03-12T03:40:23.715Z,101206.57
2019-03-12T03:42:51.872Z,101204.36
2019-03-12T03:45:20.504Z,101201.25
2019-03-12T03:47:50.287Z,101194.95
2019-03-12T03:50:18.454Z,101188.20
2019-03-12T03:52:46.735Z,101188.32
2019-03-12T03:55:15.913Z,101185.72
2019-03-12T03:57:44.165Z,101196.13
2019-03-12T04:00:21.093Z,101193.25
2019-03-12T04:02:50.222Z,101193.95
2019-03-12T04:05:18.741Z,101194.39
2019-03-12T04:07:47.192Z,101185.73
2019-03-12T04:10:15.524Z,101184.27
2019-03-12T04:12:43.585Z,101178.11
2019-03-12T04:15:13.770Z,101178.19
2019-03-12T04:17:41.833Z,101163.38
2019-03-12T04:20:10.026Z,101165.34
2019-03-12T04:22:38.426Z,101166.52
2019-03-12T04:25:06.810Z,101161.08
2019-03-12T04:27:34.893Z,101164.34
2019-03-12T04:30:03.429Z,101158.08
2019-03-12T04:32:32.997Z,101159.69
2019-03-12T04:35:03.267Z,101157.29
2019-03-12T04:37:31.386Z,101153.97
2019-03-12T04:40:02.466Z,101149.01
2019-03-12T04:42:31.730Z,101147.91
2019-03-12T04:45:01.361Z,101145.42
2019-03-12T04:47:30.208Z,101143.60
2019-03-12T04:49:58.300Z,101144.38
2019-03-12T04:52:26.414Z,101141.65
2019-03-12T04:54:54.490Z,101143.72
2019-03-12T04:57:24.038Z,101141.43
2019-03-12T04:59:52.237Z,101138.59
2019-03-12T05:02:20.427Z,101134.80
2019-03-12T05:04:48.813Z,101133.98
2019-03-12T05:07:16.979Z,101126.49
2019-03-12T05:09:45.085Z,101122.35
2019-03-12T05:12:15.196Z,101114.75
2019-03-12T05:14:45.014Z,101107.55
2019-03-12T05:17:25.068Z,101110.77
2019-03-12T05:19:53.232Z,101109.23
2019-03-12T05:22:23.756Z,101109.81
2019-03-12T05:24:51.819Z,101101.86
2019-03-12T05:27:20.031Z,101102.55
2019-03-12T05:29:48.110Z,101089.76
2019-03-12T05:32:16.254Z,101085.98
2019-03-12T05:34:44.394Z,101079.24
2019-03-12T05:37:14.386Z,101076.25
2019-03-12T05:39:42.452Z,101071.64
2019-03-12T05:42:12.455Z,101073.05
2019-03-12T05:44:41.796Z,101068.52
2019-03-12T05:47:10.858Z,101077.25
2019-03-12T05:49:39.127Z,101074.13
2019-03-12T05:52:07.729Z,101072.58
2019-03-12T05:54:36.005Z,101071.03
2019-03-12T05:57:04.183Z,101067.69
2019-03-12T05:59:32.403Z,101072.16
2019-03-12T06:02:01.534Z,101072.73
2019-03-12T06:04:29.696Z,101073.31
2019-03-12T06:06:57.820Z,101071.95
2019-03-12T06:09:30.393Z,101068.61
2019-03-12T06:11:56.641Z,101068.36
2019-03-12T06:14:24.961Z,101068.94
2019-03-12T06:16:53.024Z,101069.41
2019-03-12T06:19:21.430Z,101064.77
2019-03-12T06:21:49.543Z,101077.27
2019-03-12T06:24:19.412Z,101075.14
2019-03-12T06:26:48.694Z,101066.42
2019-03-12T06:29:17.048Z,101064.69
2019-03-12T06:32:07.570Z,101060.80
2019-03-12T06:34:45.345Z,101055.03
2019-03-12T06:37:39.051Z,101058.45
2019-03-12T06:40:33.427Z,101053.80
2019-03-12T06:43:10.616Z,101053.11
2019-03-12T06:45:58.359Z,101057.89
2019-03-12T06:48:41.659Z,101046.38
2019-03-12T06:51:36.927Z,101038.19
2019-03-12T06:54:20.415Z,101033.02
2019-03-12T06:57:17.148Z,101030.48
2019-03-12T06:59:52.925Z,101027.94
2019-03-12T07:02:43.957Z,101025.75
2019-03-12T07:05:30.690Z,101026.87
2019-03-12T07:08:25.527Z,101012.20
2019-03-12T07:11:15.787Z,101000.68
2019-03-12T07:13:53.559Z,100993.64
2019-03-12T07:16:39.658Z,100998.53
2019-03-12T07:19:24.438Z,101001.91
2019-03-12T07:22:27.639Z,100990.38
2019-03-12T07:25:13.907Z,100985.72
2019-03-12T07:28:01.623Z,100983.39
2019-03-12T07:30:55.570Z,100977.98
2019-03-12T07:33:30.440Z,100968.81
2019-03-12T07:36:11.084Z,100965.78
2019-03-12T07:38:50.772Z,100966.17
2019-03-12T07:41:41.477Z,100963.36
2019-03-12T07:44:16.662Z,100966.22
2019-03-12T07:47:03.080Z,100961.36
2019-03-12T07:50:01.802Z,100956.16
2019-03-12T07:52:52.606Z,100952.48
2019-03-12T07:55:42.660Z,100950.99
2019-03-12T07:58:35.231Z,100951.14
2019-03-12T08:01:05.454Z,100943.17
2019-03-12T08:03:45.676Z,100948.19
2019-03-12T08:06:32.269Z,100943.03
2019-03-12T08:09:13.365Z,100933.80
2019-03-12T08:11:56.333Z,100925.48
2019-03-12T08:14:53.535Z,100917.88
2019-03-12T08:17:56.312Z,100914.28
2019-03-12T08:20:42.114Z,100905.39
2019-03-12T08:23:36.148Z,100892.92
2019-03-12T08:26:16.276Z,100884.75
2019-03-12T08:29:04.011Z,100879.99
2019-03-12T08:31:46.612Z,100875.45
2019-03-12T08:34:40.498Z,100865.48
2019-03-12T08:37:23.045Z,100854.05
2019-03-12T08:40:20.459Z,100852.34
2019-03-12T08:43:11.519Z,100849.75
2019-03-12T08:45:53.757Z,100841.23
2019-03-12T08:48:31.720Z,100833.46
2019-03-12T08:51:07.525Z,100826.14
2019-03-12T08:53:53.651Z,100825.68
2019-03-12T08:56:52.177Z,100823.16
2019-03-12T08:59:38.615Z,100834.45
2019-03-12T09:02:17.153Z,100830.14
2019-03-12T09:05:05.897Z,100815.25
2019-03-12T09:07:52.943Z,100818.27
2019-03-12T09:10:41.083Z,100798.23
2019-03-12T09:13:34.525Z,100790.86
2019-03-12T09:16:17.014Z,100778.66
2019-03-12T09:19:06.135Z,100768.67
2019-03-12T09:21:48.093Z,100764.92
2019-03-12T09:24:34.386Z,100761.16
2019-03-12T09:27:27.979Z,100759.02
2019-03-12T09:30:08.674Z,100747.19
2019-03-12T09:33:05.785Z,100737.65
2019-03-12T09:35:39.344Z,100731.87
2019-03-12T09:38:21.590Z,100722.32
2019-03-12T09:41:21.266Z,100721.21
2019-03-12T09:44:14.982Z,100721.21
2019-03-12T09:47:06.645Z,100710.19
2019-03-12T09:50:00.775Z,100703.77
2019-03-12T09:53:00.999Z,100692.74
2019-03-12T09:56:07.902Z,100689.62
2019-03-12T09:58:54.567Z,100685.67
2019-03-12T10:01:39.470Z,100673.41
2019-03-12T10:04:27.340Z,100665.45
2019-03-12T10:07:18.078Z,100662.91
2019-03-12T10:10:08.765Z,100657.32
2019-03-12T10:12:45.438Z,100658.34
2019-03-12T10:15:33.250Z,100649.38
2019-03-12T10:18:26.957Z,100646.72
2019-03-12T10:21:03.931Z,100641.95
2019-03-12T10:23:53.049Z,100641.52
2019-03-12T10:26:31.228Z,100639.32
2019-03-12T10:29:17.173Z,100640.02
2019-03-12T10:31:57.523Z,100638.94
2019-03-12T10:34:48.357Z,100634.92
2019-03-12T10:37:29.973Z,100631.48
2019-03-12T10:40:17.554Z,100635.30
2019-03-12T10:43:35.212Z,100629.54
2019-03-12T10:46:10.671Z,100618.41
2019-03-12T10:48:39.900Z,100611.41
2019-03-12T10:51:08.334Z,100608.95
2019-03-12T10:53:36.425Z,100601.91
2019-03-12T10:56:04.487Z,100604.19
2019-03-12T10:58:33.860Z,100592.56
2019-03-12T11:01:06.035Z,100591.22
2019-03-12T11:03:34.170Z,100584.97
2019-03-12T11:06:02.348Z,100570.83
2019-03-12T11:08:31.841Z,100557.32
2019-03-12T11:11:00.288Z,100556.82
2019-03-12T11:13:28.478Z,100551.33
2019-03-12T11:15:56.645Z,100543.47
2019-03-12T11:18:25.154Z,100535.20
2019-03-12T11:20:53.256Z,100527.16
2019-03-12T11:23:21.341Z,100520.96
2019-03-12T11:25:49.534Z,100519.44
2019-03-12T11:28:18.449Z,100504.53
2019-03-12T11:30:46.629Z,100511.12
2019-03-12T11:33:16.084Z,100508.56
2019-03-12T11:35:44.421Z,100492.08
2019-03-12T11:38:13.678Z,100479.32
2019-03-12T11:40:41.745Z,100467.78
2019-03-12T11:43:09.802Z,100472.75
2019-03-12T11:45:38.654Z,100461.52
2019-03-12T11:48:07.772Z,100457.22
2019-03-12T11:50:36.259Z,100443.73
2019-03-12T11:53:05.797Z,100437.05
2019-03-12T11:55:34.080Z,100427.52
2019-03-12T11:58:02.226Z,100419.52
2019-03-12T12:00:43.407Z,100417.19
2019-03-12T12:03:11.759Z,100412.45
2019-03-12T12:05:40.513Z,100393.89
2019-03-12T12:08:08.564Z,100392.48
2019-03-12T12:10:37.245Z,100386.52
2019-03-12T12:13:05.619Z,100379.63
2019-03-12T12:15:33.848Z,100372.95
2019-03-12T12:18:02.281Z,100356.69
2019-03-12T12:20:30.631Z,100360.33
2019-03-12T12:22:59.256Z,100355.91
2019-03-12T12:25:27.441Z,100339.75
2019-03-12T12:27:55.888Z,100334.57
2019-03-12T12:30:25.319Z,100333.80
2019-03-12T12:32:54.698Z,100326.41
2019-03-12T12:35:22.771Z,100322.88
2019-03-12T12:37:52.124Z,100305.90
2019-03-12T12:40:21.669Z,100293.69
2019-03-12T12:42:50.134Z,100273.25
2019-03-12T12:45:19.291Z,100274.22
2019-03-12T12:47:47.572Z,100262.03
2019-03-12T12:50:16.284Z,100248.48
2019-03-12T12:52:45.586Z,100233.72
2019-03-12T12:55:14.018Z,100226.45
2019-03-12T12:57:42.089Z,100226.11
2019-03-12T13:00:16.751Z,100214.48
2019-03-12T13:02:44.806Z,100212.41
2019-03-12T13:05:13.724Z,100195.60
2019-03-12T13:07:41.925Z,100198.44
2019-03-12T13:10:14.546Z,100191.41
2019-03-12T13:12:42.624Z,100181.88
2019-03-12T13:15:10.937Z,100169.05
2019-03-12T13:17:39.924Z,100168.30
2019-03-12T13:20:08.181Z,100153.61
2019-03-12T13:22:36.357Z,100151.11
2019-03-12T13:25:06.798Z,100139.80
2019-03-12T13:27:42.346Z,100133.21
2019-03-12T13:30:06.644Z,100124.64
2019-03-12T13:32:35.042Z,100121.69
2019-03-12T13:35:04.311Z,100112.02
2019-03-12T13:37:32.480Z,100105.82
2019-03-12T13:40:01.106Z,100094.66
2019-03-12T13:42:31.317Z,100099.86
2019-03-12T13:45:01.426Z,100079.92
2019-03-12T13:47:30.209Z,100072.92
2019-03-12T13:49:58.498Z,100071.91
2019-03-12T13:52:27.208Z,100064.72
2019-03-12T13:54:55.289Z,100060.12
2019-03-12T13:57:23.409Z,100058.91
2019-03-12T13:59:52.575Z,100050.05
2019-03-12T14:02:21.696Z,100034.84
2019-03-12T14:04:49.773Z,100019.58
2019-03-12T14:07:17.824Z,100013.77
2019-03-12T14:09:46.067Z,100006.91
2019-03-12T14:12:14.814Z,100001.81
2019-03-12T14:14:44.542Z,99998.95
2019-03-12T14:17:14.136Z,99989.08
2019-03-12T14:19:42.336Z,99977.38
2019-03-12T14:22:10.440Z,99966.70
2019-03-12T14:24:38.986Z,99964.59
2019-03-12T14:27:07.245Z,99965.07
2019-03-12T14:29:35.332Z,99958.58
2019-03-12T14:32:04.398Z,99945.68
2019-03-12T14:34:32.592Z,99942.75
2019-03-12T14:37:00.811Z,99940.31
2019-03-12T14:39:29.186Z,99926.31
2019-03-12T14:41:57.308Z,99930.07
2019-03-12T14:44:25.777Z,99917.88
2019-03-12T14:46:53.975Z,99912.69
2019-03-12T14:49:22.493Z,99904.38
2019-03-12T14:52:28.165Z,99896.66
2019-03-12T14:54:56.603Z,99888.61
2019-03-12T14:57:24.749Z,99879.09
2019-03-12T14:59:53.118Z,99870.35
2019-03-12T15:02:24.235Z,99861.80
2019-03-12T15:04:53.755Z,99869.61
2019-03-12T15:07:22.939Z,99871.86
2019-03-12T15:09:51.124Z,99857.22
2019-03-12T15:12:20.585Z,99855.22
2019-03-12T15:14:48.750Z,99843.04
2019-03-12T15:17:17.065Z,99842.23
2019-03-12T15:19:45.170Z,99837.46
2019-03-12T15:22:13.487Z,99834.19
2019-03-12T15:24:41.529Z,99822.10
2019-03-12T15:27:09.669Z,99804.14
2019-03-12T15:29:39.609Z,99799.88
2019-03-12T15:32:08.140Z,99795.11
2019-03-12T15:34:36.653Z,99795.22
2019-03-12T15:37:04.919Z,99781.82
2019-03-12T15:39:33.196Z,99773.09
2019-03-12T15:42:13.811Z,99765.77
2019-03-12T15:44:42.122Z,99757.34
2019-03-12T15:47:10.239Z,99747.48
2019-03-12T15:49:42.825Z,99744.53
2019-03-12T15:52:09.480Z,99736.10
2019-03-12T15:54:37.554Z,99722.02
2019-03-12T15:57:05.630Z,99713.89
2019-03-12T15:59:33.715Z,99702.53
2019-03-12T16:02:01.858Z,99693.89
2019-03-12T16:04:29.921Z,99691.76
2019-03-12T16:07:01.631Z,99686.17
2019-03-12T16:09:28.293Z,99677.03
2019-03-12T16:11:56.347Z,99686.36
2019-03-12T16:14:36.937Z,99683.39
2019-03-12T16:17:05.184Z,99674.58
2019-03-12T16:19:33.308Z,99668.51
2019-03-12T16:22:01.719Z,99652.62
2019-03-12T16:24:29.877Z,99643.37
2019-03-12T16:26:57.947Z,99633.66
2019-03-12T16:29:26.091Z,99623.63
2019-03-12T16:31:54.344Z,99618.37
2019-03-12T16:34:22.987Z,99608.65
2019-03-12T16:36:51.378Z,99605.51
2019-03-12T16:39:19.585Z,99596.50
2019-03-12T16:41:49.633Z,99588.59
2019-03-12T16:44:17.797Z,99573.78
2019-03-12T16:46:46.015Z,99563.97
2019-03-12T16:49:14.232Z,99556.57
2019-03-12T16:51:42.385Z,99543.91
2019-03-12T16:54:10.471Z,99527.29
2019-03-12T16:56:45.091Z,99528.18
2019-03-12T16:59:09.035Z,99514.20
2019-03-12T17:01:37.832Z,99512.79
2019-03-12T17:04:06.066Z,99512.33
2019-03-12T17:06:34.174Z,99500.30
2019-03-12T17:09:05.017Z,99489.95
2019-03-12T17:11:35.043Z,99481.66
2019-03-12T17:14:03.374Z,99479.75
2019-03-12T17:16:31.633Z,99479.92
2019-03-12T17:18:59.722Z,99452.00
2019-03-12T17:21:29.115Z,99451.20
2019-03-12T17:23:57.470Z,99445.33
2019-03-12T17:26:25.559Z,99444.38
2019-03-12T17:28:53.662Z,99440.75
2019-03-12T17:31:21.840Z,99429.30
2019-03-12T17:33:50.282Z,99431.63
2019-03-12T17:36:18.461Z,99425.47
2019-03-12T17:38:47.369Z,99418.08
2019-03-12T17:41:15.581Z,99408.05
2019-03-12T17:43:43.777Z,99408.55
2019-03-12T17:46:11.832Z,99406.94
2019-03-12T17:48:39.937Z,99404.30
2019-03-12T17:51:08.254Z,99404.61
2019-03-12T17:53:37.361Z,99405.62
2019-03-12T17:56:05.445Z,99405.02
2019-03-12T17:58:33.510Z,99411.97
2019-03-12T18:01:01.869Z,99416.12
2019-03-12T18:03:30.028Z,99411.37
2019-03-12T18:05:58.090Z,99403.78
2019-03-12T18:08:26.159Z,99400.47
2019-03-12T18:10:54.662Z,99394.08
2019-03-12T18:13:24.040Z,99390.64
2019-03-12T18:15:52.233Z,99381.95
2019-03-12T18:18:22.603Z,99377.19
2019-03-12T18:20:50.673Z,99368.80
2019-03-12T18:23:18.893Z,99361.22
2019-03-12T18:25:47.149Z,99360.02
2019-03-12T18:28:15.289Z,99353.24
2019-03-12T18:30:43.382Z,99352.95
2019-03-12T18:33:11.607Z,99346.17
2019-03-12T18:35:40.399Z,99340.83
2019-03-12T18:38:08.496Z,99350.73
2019-03-12T18:40:36.631Z,99345.47
2019-03-12T18:43:04.882Z,99348.83
2019-03-12T18:45:33.120Z,99342.97
2019-03-12T18:48:01.186Z,99347.30
2019-03-12T18:50:29.550Z,99344.58
2019-03-12T18:52:57.611Z,99334.95
2019-03-12T18:56:01.199Z,99331.73
2019-03-12T18:58:29.745Z,99324.97
2019-03-12T19:01:03.964Z,99321.02
2019-03-12T19:03:32.506Z,99337.11
2019-03-12T19:06:00.733Z,99333.16
2019-03-12T19:08:28.955Z,99333.79
2019-03-12T19:10:57.173Z,99327.20
2019-03-12T19:13:26.456Z,99321.95
2019-03-12T19:15:54.787Z,99307.48
2019-03-12T19:18:24.728Z,99303.83
2019-03-12T19:20:53.273Z,99300.98
2019-03-12T19:23:21.755Z,99303.70
2019-03-12T19:25:50.278Z,99290.55
2019-03-12T19:28:18.410Z,99286.94
2019-03-12T19:30:48.560Z,99289.36
2019-03-12T19:33:18.557Z,99282.86
2019-03-12T19:35:46.773Z,99275.05
2019-03-12T19:38:15.109Z,99262.73
2019-03-12T19:40:44.668Z,99252.08
2019-03-12T19:43:13.034Z,99246.60
2019-03-12T19:45:42.429Z,99241.96
2019-03-12T19:48:12.251Z,99241.53
2019-03-12T19:50:41.808Z,99231.92
2019-03-12T19:53:09.868Z,99225.13
2019-03-12T19:55:41.623Z,99213.66
2019-03-12T19:58:11.252Z,99207.19
2019-03-12T20:00:40.494Z,99209.18
2019-03-12T20:03:12.029Z,99208.05
2019-03-12T20:05:39.304Z,99196.09
2019-03-12T20:08:08.009Z,99203.86
2019-03-12T20:11:34.002Z,99199.88
2019-03-12T20:15:16.545Z,99190.55
2019-03-12T20:18:53.622Z,99181.41
2019-03-12T20:22:26.183Z,99172.41
2019-03-12T20:26:15.865Z,99163.99
2019-03-12T20:29:42.531Z,99163.92
2019-03-12T20:33:32.938Z,99163.41
2019-03-12T20:36:56.539Z,99161.50
2019-03-12T20:40:14.988Z,99162.82
2019-03-12T20:43:56.355Z,99152.18
2019-03-12T20:47:38.351Z,99143.48
2019-03-12T20:50:57.799Z,99130.90
2019-03-12T20:54:45.713Z,99121.56
2019-03-12T20:58:32.494Z,99126.50
2019-03-12T21:02:28.971Z,99123.23
2019-03-12T21:05:53.677Z,99128.28
2019-03-12T21:09:53.546Z,99124.41
2019-03-12T21:13:25.689Z,99125.31
2019-03-12T21:17:04.587Z,99122.16
2019-03-12T21:20:49.214Z,99107.67
2019-03-12T21:24:20.048Z,99085.99
2019-03-12T21:27:33.596Z,99078.14
2019-03-12T21:30:00.266Z,99078.29
2019-03-12T21:32:29.829Z,99085.16
2019-03-12T21:34:58.331Z,99072.28
2019-03-12T21:37:26.474Z,99067.60
2019-03-12T21:39:56.200Z,99066.68
2019-03-12T21:42:25.962Z,99058.55
2019-03-12T21:44:54.019Z,99061.26
2019-03-12T21:47:22.122Z,99068.45
2019-03-12T21:49:50.193Z,99060.11
2019-03-12T21:52:18.285Z,99061.53
2019-03-12T21:54:46.697Z,99048.94
2019-03-12T21:57:15.475Z,99051.13
2019-03-12T21:59:43.620Z,99052.02
2019-03-12T22:02:12.043Z,99039.88
2019-03-12T22:04:40.518Z,99052.31
2019-03-12T22:07:08.699Z,99052.61
2019-03-12T22:09:37.143Z,99048.43
2019-03-12T22:12:05.399Z,99033.23
2019-03-12T22:14:33.577Z,99030.59
2019-03-12T22:17:02.323Z,99031.11
2019-03-12T22:19:30.525Z,99039.30
2019-03-12T22:22:21.267Z,99043.84
2019-03-12T22:24:49.333Z,99048.08
2019-03-12T22:27:17.444Z,99050.94
2019-03-12T22:29:45.521Z,99070.70
2019-03-12T22:32:13.640Z,99085.42
2019-03-12T22:34:42.035Z,99107.38
2019-03-12T22:37:10.144Z,99119.97
2019-03-12T22:39:38.997Z,99136.51
2019-03-12T22:42:07.431Z,99155.87
2019-03-12T22:44:35.508Z,99188.45
2019-03-12T22:47:03.593Z,99194.94
2019-03-12T22:49:32.635Z,99214.84
2019-03-12T22:52:00.748Z,99234.20
2019-03-12T22:54:28.793Z,99251.75
2019-03-12T22:56:57.966Z,99269.74
2019-03-12T22:59:44.684Z,99263.50
2019-03-12T23:02:31.143Z,99284.70
2019-03-12T23:05:18.026Z,99286.18
2019-03-12T23:08:04.943Z,99319.70
2019-03-12T23:10:35.038Z,99324.55
2019-03-12T23:13:03.315Z,99344.87
2019-03-12T23:15:32.580Z,99356.62
2019-03-12T23:18:02.565Z,99368.11
2019-03-12T23:20:30.923Z,99362.88
2019-03-12T23:22:59.210Z,99376.48
2019-03-12T23:25:28.696Z,99386.17
2019-03-12T23:27:57.539Z,99414.25
2019-03-12T23:30:28.868Z,99425.55
2019-03-12T23:32:57.708Z,99453.52
2019-03-12T23:35:26.071Z,99464.27
2019-03-12T23:37:54.151Z,99465.81
2019-03-12T23:40:22.248Z,99488.69
2019-03-12T23:42:50.790Z,99483.73
2019-03-12T23:45:19.743Z,99507.41
2019-03-12T23:47:50.346Z,99531.98
2019-03-12T23:50:18.373Z,99546.47
2019-03-12T23:52:46.630Z,99558.17
2019-03-12T23:55:15.723Z,99564.41
2019-03-12T23:57:43.826Z,99572.58
